Time;durP1;ratioP1;P1;durP2;ratioP2;P2;SDS_P1;SDS_P2;PMS_P1;PMS_P2;Temp;Humidity;BMP_temperature;BMP_pressure;BME280_temperature;BME280_humidity;BME280_pressure;Samples;Min_cycle;Max_cycle;Signal;HPM_P1;HPM_P2
2022/10/21 00:00:34;;;;;;;1.75;0.10;;;24.60;60.20;;;;;;5049109;28;20041;-51
2022/10/21 00:03:01;;;;;;;0.50;0.05;;;24.60;60.20;;;;;;5049299;28;20049;-50
2022/10/21 00:05:29;;;;;;;1.20;0.10;;;24.60;60.20;;;;;;5046156;28;20045;-49
2022/10/21 00:07:56;;;;;;;0.10;0.10;;;24.60;60.30;;;;;;5048933;28;20120;-50
2022/10/21 00:10:23;;;;;;;1.60;0.10;;;24.60;60.20;;;;;;5049137;28;20051;-54
2022/10/21 00:12:50;;;;;;;0.30;0.20;;;24.60;60.30;;;;;;5048974;28;20036;-51
2022/10/21 00:15:18;;;;;;;4.43;0.98;;;24.60;60.50;;;;;;5046146;28;20033;-52
2022/10/21 00:17:45;;;;;;;2.00;0.10;;;24.50;60.20;;;;;;5048943;28;20124;-51
2022/10/21 00:20:13;;;;;;;0.50;0.50;;;24.60;60.30;;;;;;5047295;28;20470;-50
2022/10/21 00:22:40;;;;;;;2.35;0.32;;;24.60;60.30;;;;;;5047149;28;20047;-50
2022/10/21 00:25:07;;;;;;;0.80;0.10;;;24.60;60.30;;;;;;5048689;28;20051;-49
2022/10/21 00:27:34;;;;;;;0.30;0.10;;;24.50;60.30;;;;;;5048731;28;20083;-49
2022/10/21 00:30:02;;;;;;;0.45;0.20;;;24.50;60.20;;;;;;5049140;28;20041;-48
2022/10/21 00:32:31;;;;;;;0.10;0.10;;;24.60;60.30;;;;;;5049094;28;20505;-48
2022/10/21 00:34:58;;;;;;;1.63;0.10;;;24.50;60.20;;;;;;5048856;28;20052;-50
2022/10/21 00:37:25;;;;;;;0.90;0.05;;;24.50;60.00;;;;;;5048438;28;20137;-52
2022/10/21 00:39:52;;;;;;;1.55;0.10;;;24.50;60.00;;;;;;5049030;28;20041;-52
2022/10/21 00:42:21;;;;;;;0.43;0.00;;;24.50;60.00;;;;;;5049005;28;20043;-52
2022/10/21 00:45:11;;;;;;;1.75;0.13;;;24.50;59.90;;;;;;5049089;28;20037;-53
2022/10/21 00:47:45;;;;;;;0.47;0.10;;;24.50;59.80;;;;;;5042551;28;20123;-49
2022/10/21 00:50:22;;;;;;;0.15;0.10;;;24.50;59.80;;;;;;5048447;28;20033;-53
2022/10/21 00:52:49;;;;;;;0.20;0.20;;;24.50;59.80;;;;;;5048850;28;20579;-48
2022/10/21 00:55:16;;;;;;;1.38;0.20;;;24.50;59.90;;;;;;5048758;28;20049;-49
2022/10/21 00:57:43;;;;;;;1.98;0.10;;;24.50;59.90;;;;;;5048761;28;20047;-49
2022/10/21 01:00:11;;;;;;;0.40;0.10;;;24.50;59.90;;;;;;5048543;28;20040;-51
2022/10/21 01:02:39;;;;;;;0.20;0.05;;;24.50;59.90;;;;;;5048333;28;20446;-50
2022/10/21 01:05:09;;;;;;;1.52;0.00;;;24.50;60.00;;;;;;5048298;28;20047;-54
2022/10/21 01:07:36;;;;;;;2.40;0.10;;;24.50;60.00;;;;;;5048537;28;20140;-54
2022/10/21 01:10:04;;;;;;;0.30;0.10;;;24.50;60.10;;;;;;5048707;28;20846;-53
2022/10/21 01:12:43;;;;;;;2.58;0.40;;;24.50;60.00;;;;;;5050097;28;20127;-52
2022/10/21 01:15:18;;;;;;;0.20;0.00;;;24.50;60.10;;;;;;5047101;28;20107;-52
2022/10/21 01:17:53;;;;;;;1.02;0.90;;;24.50;60.10;;;;;;5048357;28;20049;-52
2022/10/21 01:21:05;;;;;;;0.90;0.20;;;24.50;60.20;;;;;;5047433;28;20036;-50
2022/10/21 01:23:56;;;;;;;5.28;0.10;;;24.50;60.10;;;;;;5023235;28;20195;-47
2022/10/21 01:26:57;;;;;;;1.58;0.10;;;24.50;60.20;;;;;;5019283;28;20076;-54
2022/10/21 01:29:49;;;;;;;1.40;0.10;;;24.40;60.30;;;;;;5025081;28;20060;-54
2022/10/21 01:32:28;;;;;;;7.03;0.20;;;24.50;60.40;;;;;;5020274;28;20701;-48
2022/10/21 01:35:03;;;;;;;1.75;0.03;;;24.40;60.40;;;;;;5024924;28;20417;-52
2022/10/21 01:37:38;;;;;;;2.33;0.10;;;24.40;60.40;;;;;;5025360;28;20046;-50
2022/10/21 01:40:12;;;;;;;2.28;0.10;;;24.40;60.50;;;;;;5025087;28;20501;-47
2022/10/21 01:42:43;;;;;;;0.65;0.10;;;24.40;60.50;;;;;;5030462;28;20048;-48
2022/10/21 01:45:17;;;;;;;1.70;0.20;;;24.40;60.40;;;;;;5019212;28;20048;-51
2022/10/21 01:47:50;;;;;;;1.33;0.10;;;24.40;60.40;;;;;;5019274;28;20137;-51
2022/10/21 01:50:20;;;;;;;0.10;0.00;;;24.40;60.20;;;;;;5024657;28;20041;-48
2022/10/21 01:52:51;;;;;;;1.02;0.30;;;24.40;60.20;;;;;;5025163;28;20083;-49
2022/10/21 01:55:20;;;;;;;0.55;0.08;;;24.40;60.10;;;;;;5024606;28;20144;-49
2022/10/21 01:57:53;;;;;;;0.20;0.10;;;24.40;60.00;;;;;;5018790;28;20130;-50
2022/10/21 02:00:20;;;;;;;0.60;0.10;;;24.40;60.00;;;;;;5044728;28;20041;-50
2022/10/21 02:02:49;;;;;;;0.93;0.15;;;24.40;59.90;;;;;;5047299;28;20112;-47
2022/10/21 02:05:20;;;;;;;1.77;0.10;;;24.50;60.00;;;;;;5047377;28;20049;-49
2022/10/21 02:07:48;;;;;;;0.10;0.10;;;24.40;60.00;;;;;;5040749;28;20049;-50
2022/10/21 02:10:16;;;;;;;0.40;0.10;;;24.40;60.00;;;;;;5045153;28;20047;-50
2022/10/21 02:12:47;;;;;;;3.97;0.10;;;24.40;60.00;;;;;;5047419;28;20040;-51
2022/10/21 02:15:16;;;;;;;2.42;0.88;;;24.40;60.00;;;;;;5047481;28;20045;-49
2022/10/21 02:17:50;;;;;;;0.30;0.15;;;24.40;60.50;;;;;;5047157;28;20036;-51
2022/10/21 02:20:20;;;;;;;3.13;0.35;;;24.40;60.00;;;;;;5046994;28;20072;-47
2022/10/21 02:22:48;;;;;;;2.15;0.10;;;24.40;60.00;;;;;;5047251;28;20064;-47
2022/10/21 02:25:19;;;;;;;0.60;0.10;;;24.40;60.00;;;;;;5046205;28;20091;-48
2022/10/21 02:27:51;;;;;;;1.63;0.00;;;24.40;60.10;;;;;;5040886;28;20069;-48
2022/10/21 02:30:18;;;;;;;0.82;0.32;;;24.40;60.10;;;;;;5047332;28;20678;-48
2022/10/21 02:32:53;;;;;;;0.85;0.10;;;24.40;60.10;;;;;;5047096;28;20531;-51
2022/10/21 02:35:31;;;;;;;0.83;0.50;;;24.40;60.10;;;;;;5045519;28;20560;-50
2022/10/21 02:38:03;;;;;;;1.95;0.10;;;24.40;60.20;;;;;;5042544;28;20120;-54
2022/10/21 02:40:37;;;;;;;0.80;0.10;;;24.40;60.20;;;;;;5041281;28;20413;-52
2022/10/21 02:43:09;;;;;;;0.93;0.10;;;24.40;60.20;;;;;;5050095;28;20043;-49
2022/10/21 02:45:36;;;;;;;2.58;0.10;;;24.40;60.30;;;;;;5051337;28;20207;-51
2022/10/21 02:48:03;;;;;;;0.52;0.10;;;24.40;60.20;;;;;;5050683;28;20037;-49
2022/10/21 02:50:32;;;;;;;0.73;0.65;;;24.40;60.20;;;;;;5051352;28;20049;-53
2022/10/21 02:52:59;;;;;;;1.00;0.10;;;24.40;60.30;;;;;;5051355;28;20120;-53
2022/10/21 02:55:26;;;;;;;4.28;0.10;;;24.40;60.20;;;;;;5050484;28;20072;-50
2022/10/21 02:57:53;;;;;;;3.90;0.43;;;24.40;60.70;;;;;;5050967;28;20033;-53
2022/10/21 03:00:20;;;;;;;1.85;0.25;;;24.40;60.20;;;;;;5050946;28;20041;-47
2022/10/21 03:02:47;;;;;;;1.48;0.10;;;24.40;60.20;;;;;;5050843;28;20116;-50
2022/10/21 03:05:15;;;;;;;3.58;0.10;;;24.40;60.30;;;;;;5050888;28;20077;-50
2022/10/21 03:07:43;;;;;;;0.75;0.40;;;24.40;60.30;;;;;;5050943;28;20048;-51
2022/10/21 03:10:10;;;;;;;0.75;0.10;;;24.40;60.30;;;;;;5046001;28;20037;-50
2022/10/21 03:12:37;;;;;;;0.50;0.10;;;24.40;60.30;;;;;;5050431;28;20037;-49
2022/10/21 03:15:04;;;;;;;0.60;0.10;;;24.40;60.30;;;;;;5047506;28;20041;-67
2022/10/21 03:17:31;;;;;;;1.25;0.10;;;24.40;60.40;;;;;;5047436;28;20041;-67
2022/10/21 03:19:58;;;;;;;1.77;0.08;;;24.40;60.60;;;;;;5047204;28;20132;-64
2022/10/21 03:22:25;;;;;;;1.00;0.32;;;24.40;61.30;;;;;;5049799;28;20043;-65
2022/10/21 03:24:54;;;;;;;1.90;0.50;;;24.30;60.70;;;;;;5050350;28;20530;-62
2022/10/21 03:27:21;;;;;;;0.75;0.10;;;24.30;60.80;;;;;;5049933;28;20052;-62
2022/10/21 03:29:48;;;;;;;0.20;0.00;;;24.40;60.90;;;;;;5049705;28;20037;-58
2022/10/21 03:32:15;;;;;;;1.35;0.20;;;24.30;60.90;;;;;;5048132;28;20041;-60
2022/10/21 03:34:42;;;;;;;2.38;0.10;;;24.30;60.90;;;;;;5046213;28;20127;-57
2022/10/21 03:37:09;;;;;;;0.55;0.10;;;24.30;61.00;;;;;;5049766;28;20064;-55
2022/10/21 03:39:36;;;;;;;0.82;0.20;;;24.30;61.00;;;;;;5047399;28;20041;-61
2022/10/21 03:42:04;;;;;;;2.20;0.20;;;24.30;61.00;;;;;;5050427;28;20037;-60
2022/10/21 03:44:31;;;;;;;1.38;0.30;;;24.30;61.00;;;;;;5048813;28;20119;-61
2022/10/21 03:46:58;;;;;;;0.30;0.10;;;24.30;61.00;;;;;;5049845;28;20033;-61
2022/10/21 03:49:25;;;;;;;1.75;0.10;;;24.30;60.90;;;;;;5046296;28;20160;-61
2022/10/21 03:51:52;;;;;;;0.63;0.20;;;24.30;60.90;;;;;;5049805;28;20037;-62
2022/10/21 03:54:19;;;;;;;0.30;0.10;;;24.30;60.90;;;;;;5049260;28;20122;-62
2022/10/21 03:56:46;;;;;;;3.42;0.70;;;24.30;60.90;;;;;;5049254;28;20048;-62
2022/10/21 03:59:15;;;;;;;1.75;1.33;;;24.30;60.90;;;;;;5049271;28;20041;-62
2022/10/21 04:01:42;;;;;;;3.13;0.10;;;24.30;60.90;;;;;;5049211;28;20139;-62
2022/10/21 04:04:09;;;;;;;2.03;0.13;;;24.30;60.90;;;;;;5049269;28;20047;-62
2022/10/21 04:06:36;;;;;;;0.20;0.10;;;24.30;61.00;;;;;;5048993;28;20838;-62
2022/10/21 04:09:03;;;;;;;2.45;0.10;;;24.40;61.00;;;;;;5049202;28;20053;-62
2022/10/21 04:11:30;;;;;;;6.15;0.57;;;24.30;60.90;;;;;;5050392;28;20045;-62
2022/10/21 04:13:57;;;;;;;1.17;0.10;;;24.30;60.90;;;;;;5048787;28;20073;-62
2022/10/21 04:16:26;;;;;;;1.45;0.20;;;24.30;60.90;;;;;;5048504;28;20045;-62
2022/10/21 04:18:53;;;;;;;1.65;0.65;;;24.30;60.90;;;;;;5042869;28;20161;-61
2022/10/21 04:21:20;;;;;;;0.32;0.30;;;24.30;60.90;;;;;;5045868;28;20045;-61
2022/10/21 04:23:47;;;;;;;2.15;0.45;;;24.30;60.90;;;;;;5045702;28;20575;-62
2022/10/21 04:26:14;;;;;;;3.85;0.60;;;24.30;60.90;;;;;;5048824;28;20502;-62
2022/10/21 04:28:41;;;;;;;0.22;0.22;;;24.30;60.90;;;;;;5049515;28;20516;-62
2022/10/21 04:31:08;;;;;;;0.82;0.10;;;24.40;60.90;;;;;;5049110;28;20409;-60
2022/10/21 04:33:36;;;;;;;2.08;0.10;;;24.40;60.80;;;;;;5048684;28;20145;-61
2022/10/21 04:36:04;;;;;;;0.82;0.40;;;24.40;60.60;;;;;;5048594;28;20037;-62
2022/10/21 04:38:31;;;;;;;2.38;0.10;;;24.40;60.50;;;;;;5048915;28;20055;-62
2022/10/21 04:41:00;;;;;;;1.13;0.32;;;24.50;60.40;;;;;;5053044;28;20584;-59
2022/10/21 04:43:27;;;;;;;1.40;0.13;;;24.50;60.40;;;;;;5048514;28;20044;-62
2022/10/21 04:45:54;;;;;;;1.10;0.20;;;24.50;60.30;;;;;;5045114;28;20045;-61
2022/10/21 04:48:22;;;;;;;2.72;0.20;;;24.50;60.20;;;;;;5048473;28;20049;-61
2022/10/21 04:50:52;;;;;;;2.10;0.10;;;24.50;60.10;;;;;;5048832;28;20037;-61
2022/10/21 04:53:19;;;;;;;0.98;0.10;;;24.50;60.10;;;;;;5048837;28;20076;-61
2022/10/21 04:55:50;;;;;;;4.78;0.10;;;24.50;60.00;;;;;;5048339;28;20607;-62
2022/10/21 04:58:18;;;;;;;1.58;0.17;;;24.50;60.00;;;;;;5047801;28;20037;-61
2022/10/21 05:00:45;;;;;;;3.33;0.28;;;24.50;60.00;;;;;;5048538;28;20059;-62
2022/10/21 05:03:12;;;;;;;2.60;0.77;;;24.50;60.00;;;;;;5048731;28;20045;-62
2022/10/21 05:05:39;;;;;;;2.67;0.10;;;24.50;60.00;;;;;;5048213;28;20041;-62
2022/10/21 05:08:07;;;;;;;1.85;0.88;;;24.50;60.00;;;;;;5047905;28;20056;-61
2022/10/21 05:10:34;;;;;;;1.92;0.10;;;24.50;60.00;;;;;;5048992;28;20036;-61
2022/10/21 05:13:01;;;;;;;0.70;0.20;;;24.50;60.00;;;;;;5048425;28;20128;-62
2022/10/21 05:15:28;;;;;;;0.57;0.57;;;24.50;60.00;;;;;;5048111;28;20530;-61
2022/10/21 05:17:55;;;;;;;0.95;0.20;;;24.50;60.00;;;;;;5041404;28;20069;-61
2022/10/21 05:20:22;;;;;;;0.85;0.10;;;24.50;60.00;;;;;;5047853;28;20048;-61
2022/10/21 05:22:50;;;;;;;1.13;0.10;;;24.40;59.90;;;;;;5048203;28;20049;-61
2022/10/21 05:25:19;;;;;;;0.43;0.13;;;24.40;59.90;;;;;;5046513;28;20152;-61
2022/10/21 05:27:46;;;;;;;0.60;0.10;;;24.40;59.90;;;;;;5047727;28;20087;-61
2022/10/21 05:30:14;;;;;;;0.22;0.10;;;24.40;60.00;;;;;;5048404;28;20052;-61
2022/10/21 05:32:41;;;;;;;1.17;0.28;;;24.40;60.00;;;;;;5047481;28;20053;-61
2022/10/21 05:35:10;;;;;;;0.75;0.20;;;24.40;60.00;;;;;;5047791;28;20528;-62
2022/10/21 05:37:37;;;;;;;2.70;0.10;;;24.40;60.00;;;;;;5047956;28;20041;-62
2022/10/21 05:40:06;;;;;;;2.58;0.10;;;24.40;60.10;;;;;;5047810;28;20052;-61
2022/10/21 05:42:34;;;;;;;1.80;0.20;;;24.40;60.10;;;;;;5051563;28;20060;-61
2022/10/21 05:45:01;;;;;;;0.20;0.10;;;24.40;60.10;;;;;;5047538;28;20087;-60
2022/10/21 05:47:28;;;;;;;3.83;0.25;;;24.40;60.10;;;;;;5041017;28;20140;-61
2022/10/21 05:49:55;;;;;;;2.25;0.68;;;24.40;60.20;;;;;;5047485;28;20048;-61
2022/10/21 05:52:22;;;;;;;3.03;0.40;;;24.40;60.20;;;;;;5047835;28;20029;-61
2022/10/21 05:54:49;;;;;;;2.78;0.10;;;24.30;60.20;;;;;;5047159;28;20053;-62
2022/10/21 05:57:16;;;;;;;1.55;0.20;;;24.40;60.30;;;;;;5047698;28;20049;-61
2022/10/21 05:59:45;;;;;;;1.23;0.20;;;24.30;60.30;;;;;;5041452;28;20045;-62
2022/10/21 06:02:12;;;;;;;1.05;0.95;;;24.40;60.40;;;;;;5041438;28;20109;-62
2022/10/21 06:04:40;;;;;;;2.47;0.10;;;24.30;60.30;;;;;;5044588;28;20045;-63
2022/10/21 06:07:07;;;;;;;2.95;0.20;;;24.30;60.30;;;;;;5041238;28;20472;-61
2022/10/21 06:09:34;;;;;;;2.40;0.30;;;24.30;60.30;;;;;;5040561;28;20314;-62
2022/10/21 06:12:01;;;;;;;1.90;0.20;;;24.30;60.40;;;;;;5047572;28;20115;-61
2022/10/21 06:14:28;;;;;;;1.50;0.10;;;24.30;60.40;;;;;;5047073;28;20029;-62
2022/10/21 06:16:56;;;;;;;0.65;0.13;;;24.30;60.40;;;;;;5047111;28;20151;-61
2022/10/21 06:19:23;;;;;;;0.95;0.22;;;24.30;60.50;;;;;;5046767;28;20037;-62
2022/10/21 06:21:50;;;;;;;3.72;0.20;;;24.30;60.50;;;;;;5047304;28;20137;-62
2022/10/21 06:24:17;;;;;;;3.05;0.20;;;24.30;60.50;;;;;;5047106;28;20040;-61
2022/10/21 06:26:44;;;;;;;0.93;0.15;;;24.30;60.50;;;;;;5047369;28;20053;-61
2022/10/21 06:29:11;;;;;;;6.32;0.10;;;24.30;60.60;;;;;;5047091;28;20037;-62
2022/10/21 06:31:38;;;;;;;1.48;0.40;;;24.30;60.60;;;;;;5045758;28;20045;-60
2022/10/21 06:34:07;;;;;;;2.20;0.10;;;24.30;60.70;;;;;;5047135;28;20049;-60
2022/10/21 06:36:36;;;;;;;0.40;0.30;;;24.30;60.70;;;;;;5047202;28;20079;-61
2022/10/21 06:39:04;;;;;;;1.35;0.20;;;24.30;60.80;;;;;;5046981;28;20037;-61
2022/10/21 06:41:31;;;;;;;1.52;0.20;;;24.30;60.80;;;;;;5050475;28;20043;-60
2022/10/21 06:43:58;;;;;;;1.08;0.35;;;24.30;60.80;;;;;;5047403;28;20045;-60
2022/10/21 06:46:25;;;;;;;3.83;0.10;;;24.30;61.40;;;;;;5046964;28;20049;-60
2022/10/21 06:48:52;;;;;;;0.68;0.10;;;24.30;60.90;;;;;;5046854;28;20565;-60
2022/10/21 06:51:22;;;;;;;5.43;0.30;;;24.20;61.00;;;;;;5046652;28;20389;-61
2022/10/21 06:53:52;;;;;;;0.63;0.22;;;24.30;61.20;;;;;;5044951;28;20056;-60
2022/10/21 06:56:20;;;;;;;0.77;0.50;;;24.30;61.20;;;;;;5046720;28;20595;-61
2022/10/21 06:58:48;;;;;;;5.18;0.65;;;24.30;61.30;;;;;;5046875;28;20041;-60
2022/10/21 07:01:18;;;;;;;10.68;1.52;;;24.30;61.40;;;;;;5047111;28;20452;-59
2022/10/21 07:03:45;;;;;;;8.95;1.45;;;24.20;61.40;;;;;;5047101;28;20485;-60
2022/10/21 07:06:12;;;;;;;8.13;1.88;;;24.30;61.50;;;;;;5046359;28;20792;-60
2022/10/21 07:08:41;;;;;;;6.82;1.48;;;24.30;61.50;;;;;;5046233;28;20045;-60
2022/10/21 07:11:08;;;;;;;4.57;1.20;;;24.30;61.50;;;;;;5052462;28;20124;-60
2022/10/21 07:13:36;;;;;;;8.43;1.52;;;24.30;61.60;;;;;;5046455;28;20047;-60
2022/10/21 07:16:05;;;;;;;4.93;0.90;;;24.30;61.60;;;;;;5046430;28;20055;-60
2022/10/21 07:18:33;;;;;;;9.65;1.67;;;24.20;61.60;;;;;;5040414;28;20041;-60
2022/10/21 07:21:04;;;;;;;15.05;1.08;;;24.20;61.60;;;;;;5040692;28;20125;-61
2022/10/21 07:23:31;;;;;;;11.73;1.83;;;24.20;61.60;;;;;;5045446;28;20699;-60
2022/10/21 07:26:02;;;;;;;6.72;1.02;;;24.20;61.60;;;;;;5046030;28;20037;-60
2022/10/21 07:28:29;;;;;;;7.70;1.77;;;24.20;61.70;;;;;;5043782;28;20733;-60
2022/10/21 07:30:56;;;;;;;12.25;0.88;;;24.20;61.70;;;;;;5043030;28;20064;-68
2022/10/21 07:33:23;;;;;;;5.72;0.70;;;24.20;61.90;;;;;;5049744;28;20045;-56
2022/10/21 07:35:50;;;;;;;6.00;0.60;;;24.20;62.00;;;;;;5049906;28;20049;-59
2022/10/21 07:38:17;;;;;;;5.38;1.60;;;24.20;62.80;;;;;;5041841;28;20131;-65
2022/10/21 07:40:45;;;;;;;4.43;0.75;;;24.30;62.40;;;;;;5046365;28;20054;-61
2022/10/21 07:43:13;;;;;;;11.40;1.38;;;24.30;62.50;;;;;;5042384;28;20045;-54
2022/10/21 07:45:41;;;;;;;2.75;1.10;;;24.30;62.70;;;;;;5049886;28;20055;-61
2022/10/21 07:48:08;;;;;;;4.53;1.10;;;24.30;62.70;;;;;;5044212;28;20044;-62
2022/10/21 07:50:36;;;;;;;2.88;0.50;;;24.30;62.70;;;;;;5043044;28;20048;-60
2022/10/21 07:53:03;;;;;;;1.77;0.25;;;24.40;62.70;;;;;;5048906;28;20045;-62
2022/10/21 07:55:30;;;;;;;2.83;0.30;;;24.40;62.80;;;;;;5047265;28;20437;-61
2022/10/21 07:57:58;;;;;;;3.45;0.52;;;24.40;62.80;;;;;;5047510;28;20112;-61
2022/10/21 08:00:26;;;;;;;2.20;0.17;;;24.50;62.80;;;;;;5075446;28;20513;-61
2022/10/21 08:02:54;;;;;;;2.85;0.30;;;24.50;62.90;;;;;;5043006;28;20069;-62
2022/10/21 08:05:22;;;;;;;4.57;1.05;;;24.50;62.90;;;;;;5048402;28;20045;-57
2022/10/21 08:07:49;;;;;;;1.50;0.75;;;24.60;62.90;;;;;;5049056;28;20055;-57
2022/10/21 08:10:16;;;;;;;2.30;0.25;;;24.60;62.80;;;;;;5049357;28;20040;-57
2022/10/21 08:12:43;;;;;;;2.30;0.85;;;24.70;62.70;;;;;;5049560;28;20037;-59
2022/10/21 08:15:10;;;;;;;1.55;0.90;;;24.70;62.50;;;;;;5049369;28;20045;-56
2022/10/21 08:17:39;;;;;;;2.65;0.20;;;24.70;62.50;;;;;;5048897;28;20056;-54
2022/10/21 08:20:07;;;;;;;2.30;0.20;;;24.80;62.50;;;;;;5048674;28;20040;-56
2022/10/21 08:22:34;;;;;;;1.60;0.20;;;24.80;62.80;;;;;;5048808;28;20140;-58
2022/10/21 08:25:01;;;;;;;1.80;0.50;;;24.90;62.40;;;;;;5048608;28;20048;-57
2022/10/21 08:27:28;;;;;;;1.80;0.20;;;24.90;62.30;;;;;;5048785;28;20052;-65
2022/10/21 08:29:55;;;;;;;1.88;0.30;;;25.00;62.20;;;;;;5047359;28;20052;-63
2022/10/21 08:32:22;;;;;;;1.67;0.10;;;25.00;62.20;;;;;;5049155;28;20041;-60
2022/10/21 08:34:51;;;;;;;0.93;0.20;;;25.10;62.10;;;;;;5048342;28;20398;-59
2022/10/21 08:37:18;;;;;;;2.63;0.30;;;25.10;61.90;;;;;;5048396;28;20123;-58
2022/10/21 08:39:45;;;;;;;2.00;0.45;;;25.20;61.80;;;;;;5048754;28;20480;-63
2022/10/21 08:42:14;;;;;;;2.63;0.28;;;25.20;61.80;;;;;;5050127;28;20125;-73
2022/10/21 08:44:47;;;;;;;1.10;0.17;;;25.20;61.70;;;;;;5048929;28;20041;-67
2022/10/21 08:47:24;;;;;;;1.70;0.47;;;25.30;61.60;;;;;;5048607;28;20067;-69
2022/10/21 08:49:58;;;;;;;4.65;0.38;;;25.30;61.50;;;;;;5047533;28;20124;-59
2022/10/21 08:52:31;;;;;;;3.45;0.60;;;25.40;61.40;;;;;;5048033;28;20048;-56
2022/10/21 08:55:01;;;;;;;0.73;0.15;;;25.40;61.30;;;;;;5042268;28;20055;-56
2022/10/21 08:57:30;;;;;;;2.67;0.47;;;25.40;61.20;;;;;;5047977;28;20040;-57
2022/10/21 08:59:57;;;;;;;1.75;0.52;;;25.50;61.10;;;;;;5046528;28;20041;-54
2022/10/21 09:02:33;;;;;;;0.50;0.20;;;25.50;61.10;;;;;;5048552;28;20413;-55
2022/10/21 09:05:22;;;;;;;2.10;0.50;;;25.60;61.10;;;;;;5046029;28;20446;-57
2022/10/21 09:07:58;;;;;;;2.05;0.43;;;25.60;61.00;;;;;;5041929;28;20052;-61
2022/10/21 09:10:37;;;;;;;3.40;0.63;;;25.60;61.10;;;;;;5048746;28;20740;-62
2022/10/21 09:13:12;;;;;;;3.40;0.10;;;25.60;61.10;;;;;;5051818;28;20041;-58
2022/10/21 09:15:52;;;;;;;1.23;0.10;;;25.70;61.10;;;;;;5048405;28;20041;-55
2022/10/21 09:18:33;;;;;;;0.70;0.13;;;25.70;61.10;;;;;;5041518;28;20128;-54
2022/10/21 09:21:09;;;;;;;1.67;1.15;;;25.80;61.20;;;;;;5042555;28;20102;-54
2022/10/21 09:23:44;;;;;;;1.48;0.43;;;25.80;61.20;;;;;;5047950;28;20416;-58
2022/10/21 09:26:23;;;;;;;3.55;0.77;;;25.90;61.20;;;;;;5044766;28;20065;-57
2022/10/21 09:28:50;;;;;;;2.15;0.32;;;26.00;61.20;;;;;;5046049;28;20037;-57
2022/10/21 09:31:20;;;;;;;3.90;1.17;;;25.90;61.20;;;;;;5047662;28;20055;-60
2022/10/21 09:33:49;;;;;;;2.45;0.20;;;26.10;61.20;;;;;;5047269;28;20056;-58
2022/10/21 09:36:23;;;;;;;2.63;0.65;;;26.20;61.20;;;;;;5046612;28;20414;-60
2022/10/21 09:38:56;;;;;;;3.78;0.20;;;26.20;60.90;;;;;;5079716;28;20506;-71
2022/10/21 09:41:31;;;;;;;2.50;0.38;;;26.30;60.90;;;;;;5043194;28;20083;-71
2022/10/21 09:43:58;;;;;;;2.17;0.30;;;26.30;60.80;;;;;;5039047;28;20188;-71
2022/10/21 09:46:25;;;;;;;3.20;0.60;;;26.40;60.80;;;;;;5047963;28;20112;-62
2022/10/21 09:48:54;;;;;;;1.23;0.38;;;26.40;60.70;;;;;;5047413;28;20045;-61
2022/10/21 09:51:26;;;;;;;3.97;0.20;;;26.50;60.70;;;;;;5047322;28;20044;-69
2022/10/21 09:53:57;;;;;;;3.15;0.28;;;26.60;60.60;;;;;;5046988;28;20041;-63
2022/10/21 09:56:27;;;;;;;2.63;0.22;;;26.60;60.50;;;;;;5047350;28;20037;-60
2022/10/21 09:59:05;;;;;;;1.95;1.02;;;26.60;60.40;;;;;;5047150;28;20591;-65
2022/10/21 10:01:33;;;;;;;2.28;0.80;;;26.70;60.40;;;;;;5045685;28;20041;-60
2022/10/21 10:04:09;;;;;;;2.63;0.63;;;26.70;60.50;;;;;;5047470;28;20114;-58
2022/10/21 10:06:39;;;;;;;3.38;1.20;;;26.70;60.40;;;;;;5047177;28;20084;-62
2022/10/21 10:09:13;;;;;;;2.83;0.43;;;26.80;60.40;;;;;;5047127;28;20048;-65
2022/10/21 10:11:50;;;;;;;1.38;0.40;;;26.80;60.30;;;;;;5052367;28;20037;-63
2022/10/21 10:14:27;;;;;;;1.02;0.30;;;26.90;60.30;;;;;;5041281;28;20060;-57
2022/10/21 10:16:54;;;;;;;1.55;0.30;;;26.90;60.20;;;;;;5041928;28;20048;-62
2022/10/21 10:19:24;;;;;;;1.42;0.40;;;27.00;60.20;;;;;;5047027;28;20045;-61
2022/10/21 10:22:12;;;;;;;1.38;0.20;;;27.00;60.00;;;;;;5047259;28;20358;-60
2022/10/21 10:24:40;;;;;;;1.20;0.30;;;27.10;59.90;;;;;;5046931;28;20091;-61
2022/10/21 10:27:13;;;;;;;3.60;0.30;;;27.10;59.90;;;;;;5046936;28;20041;-57
2022/10/21 10:29:41;;;;;;;1.40;0.40;;;27.20;59.80;;;;;;5046930;28;20059;-58
2022/10/21 10:32:14;;;;;;;0.35;0.10;;;27.30;59.80;;;;;;5046532;28;20039;-62
2022/10/21 10:34:51;;;;;;;2.33;0.50;;;27.40;59.80;;;;;;5047077;28;20044;-57
2022/10/21 10:37:21;;;;;;;3.15;0.47;;;27.50;59.70;;;;;;5040266;28;20041;-62
2022/10/21 10:39:51;;;;;;;1.65;0.50;;;27.50;59.50;;;;;;5047392;28;20045;-60
2022/10/21 10:42:20;;;;;;;4.55;0.30;;;27.60;59.40;;;;;;5040061;28;20039;-62
2022/10/21 10:44:47;;;;;;;2.22;0.47;;;27.60;57.20;;;;;;5046573;28;20047;-62
2022/10/21 10:47:22;;;;;;;6.65;0.30;;;27.60;55.40;;;;;;5045126;28;20045;-62
2022/10/21 10:49:50;;;;;;;6.82;0.45;;;27.50;53.90;;;;;;5045072;28;20075;-61
2022/10/21 10:52:23;;;;;;;2.95;0.45;;;27.30;53.00;;;;;;5044924;28;20045;-62
2022/10/21 10:55:17;;;;;;;2.15;0.20;;;27.10;52.70;;;;;;5046231;28;20064;-65
2022/10/21 10:57:48;;;;;;;3.63;0.40;;;27.00;52.40;;;;;;5045026;28;20045;-59
2022/10/21 11:00:18;;;;;;;4.97;0.47;;;26.70;51.90;;;;;;5046342;28;20449;-59
2022/10/21 11:02:54;;;;;;;3.70;0.57;;;26.70;51.70;;;;;;5042685;28;20048;-59
2022/10/21 11:05:27;;;;;;;3.40;0.57;;;26.50;51.80;;;;;;5048225;28;20053;-59
2022/10/21 11:07:58;;;;;;;5.03;0.38;;;26.40;51.90;;;;;;5049527;28;20069;-62
2022/10/21 11:10:34;;;;;;;7.65;0.10;;;26.30;52.00;;;;;;5046033;28;20047;-63
2022/10/21 11:13:04;;;;;;;3.22;0.13;;;26.20;52.10;;;;;;5049452;28;20076;-58
2022/10/21 11:15:51;;;;;;;5.22;0.60;;;26.20;51.90;;;;;;5049003;28;20052;-56
2022/10/21 11:18:25;;;;;;;0.90;0.20;;;26.10;51.80;;;;;;5045208;28;20059;-54
2022/10/21 11:21:05;;;;;;;3.53;0.43;;;26.00;52.10;;;;;;5046669;28;20835;-53
2022/10/21 11:23:54;;;;;;;4.75;0.55;;;26.00;52.40;;;;;;5048354;28;20049;-56
2022/10/21 11:26:32;;;;;;;5.28;0.10;;;25.90;52.00;;;;;;5046713;28;20124;-56
2022/10/21 11:29:08;;;;;;;5.13;0.40;;;25.80;52.10;;;;;;5048891;28;20041;-57
2022/10/21 11:31:41;;;;;;;1.85;0.13;;;25.90;51.90;;;;;;5049411;28;20056;-57
2022/10/21 11:34:18;;;;;;;2.50;0.43;;;25.80;51.50;;;;;;5047067;28;20045;-54
2022/10/21 11:37:08;;;;;;;5.38;0.20;;;25.80;51.20;;;;;;5047146;28;20047;-54
2022/10/21 11:39:47;;;;;;;4.00;0.40;;;25.80;50.60;;;;;;5047612;28;20099;-55
2022/10/21 11:42:22;;;;;;;3.35;0.20;;;25.80;50.20;;;;;;5047343;28;20124;-55
2022/10/21 11:45:02;;;;;;;6.78;1.10;;;25.80;50.40;;;;;;5047099;28;20048;-55
2022/10/21 11:47:35;;;;;;;5.85;0.80;;;25.80;50.10;;;;;;5048041;28;20152;-55
2022/10/21 11:50:12;;;;;;;2.67;0.40;;;25.90;49.60;;;;;;5048740;28;20052;-53
2022/10/21 11:52:49;;;;;;;3.40;0.10;;;25.90;48.90;;;;;;5047745;28;20041;-49
2022/10/21 11:55:37;;;;;;;3.30;0.63;;;25.90;48.50;;;;;;5047668;28;20080;-54
2022/10/21 11:58:15;;;;;;;4.25;0.20;;;25.90;48.20;;;;;;5045377;28;20052;-52
2022/10/21 12:00:50;;;;;;;4.03;0.20;;;25.90;47.80;;;;;;5047447;28;20045;-54
2022/10/21 12:03:39;;;;;;;4.75;0.20;;;25.90;47.90;;;;;;5047552;28;20037;-53
2022/10/21 12:06:15;;;;;;;4.25;0.20;;;26.00;47.80;;;;;;5047010;28;20155;-54
2022/10/21 12:08:48;;;;;;;6.40;0.50;;;26.00;47.70;;;;;;5048308;28;20065;-51
2022/10/21 12:11:21;;;;;;;2.05;0.35;;;26.10;46.90;;;;;;5047929;28;20041;-53
2022/10/21 12:13:52;;;;;;;4.68;0.20;;;26.10;46.90;;;;;;5047854;28;20047;-52
2022/10/21 12:16:25;;;;;;;4.03;0.43;;;26.10;46.30;;;;;;5047354;28;20095;-52
2022/10/21 12:18:56;;;;;;;10.70;0.73;;;26.10;46.10;;;;;;5047248;28;20057;-52
2022/10/21 12:21:26;;;;;;;5.45;0.20;;;26.10;45.90;;;;;;5046493;28;20235;-50
2022/10/21 12:23:58;;;;;;;5.85;0.90;;;26.10;45.70;;;;;;5046656;28;20502;-53
2022/10/21 12:26:30;;;;;;;3.13;0.57;;;26.10;45.70;;;;;;5046454;28;20102;-52
2022/10/21 12:29:06;;;;;;;3.45;0.40;;;26.10;45.30;;;;;;5046096;28;20040;-54
2022/10/21 12:31:44;;;;;;;1.27;0.43;;;26.10;45.50;;;;;;5045136;28;20044;-53
2022/10/21 12:34:12;;;;;;;5.82;0.20;;;26.00;45.50;;;;;;5046077;28;20040;-57
2022/10/21 12:36:45;;;;;;;8.13;0.70;;;26.00;45.10;;;;;;5046887;28;20045;-52
2022/10/21 12:39:38;;;;;;;11.27;0.68;;;25.90;45.00;;;;;;5046861;28;20453;-54
2022/10/21 12:42:13;;;;;;;4.07;0.75;;;25.90;45.00;;;;;;5047469;28;20045;-54
2022/10/21 12:44:45;;;;;;;6.43;0.90;;;25.80;45.10;;;;;;5046818;28;20537;-52
2022/10/21 12:47:25;;;;;;;4.93;0.20;;;25.80;45.10;;;;;;5046447;28;20128;-54
2022/10/21 12:50:17;;;;;;;6.15;0.47;;;25.70;45.00;;;;;;5046567;28;20041;-55
2022/10/21 12:52:46;;;;;;;5.20;0.30;;;25.70;45.20;;;;;;5047294;28;20037;-53
2022/10/21 12:55:21;;;;;;;4.22;0.20;;;25.60;45.10;;;;;;5047084;28;20128;-54
2022/10/21 12:57:58;;;;;;;6.57;0.35;;;25.60;45.30;;;;;;5046890;28;20429;-51
2022/10/21 13:00:55;;;;;;;6.88;0.45;;;25.50;45.20;;;;;;5048461;28;20093;-53
2022/10/21 13:03:43;;;;;;;2.80;0.20;;;25.50;45.40;;;;;;5045105;28;20481;-53